createdAt,value
2022-08-22T00:00:23.245Z,100.00
2022-08-22T00:02:47.156Z,100.00
2022-08-22T00:03:26.544Z,100.00
2022-08-22T00:06:32.175Z,100.00
2022-08-22T00:10:08.771Z,100.00
2022-08-22T00:13:08.120Z,100.00
2022-08-22T00:16:09.305Z,100.00
2022-08-22T00:19:15.925Z,100.00
2022-08-22T00:22:12.429Z,100.00
2022-08-22T00:25:28.448Z,100.00
2022-08-22T00:28:24.530Z,100.00
2022-08-22T00:31:36.711Z,100.00
2022-08-22T00:34:34.168Z,100.00
2022-08-22T00:37:32.365Z,100.00
2022-08-22T00:40:43.723Z,100.00
2022-08-22T00:44:04.645Z,100.00
2022-08-22T00:47:19.878Z,100.00
2022-08-22T00:50:09.712Z,100.00
2022-08-22T00:53:34.874Z,100.00
2022-08-22T00:56:47.987Z,100.00
2022-08-22T00:59:56.278Z,100.00
2022-08-22T01:03:18.552Z,100.00
2022-08-22T01:06:20.676Z,100.00
2022-08-22T01:09:27.027Z,100.00
2022-08-22T01:12:33.380Z,100.00
2022-08-22T01:15:25.967Z,100.00
2022-08-22T01:18:29.959Z,100.00
2022-08-22T01:21:51.493Z,100.00
2022-08-22T01:25:18.447Z,100.00
2022-08-22T01:28:50.480Z,100.00
2022-08-22T01:31:46.516Z,100.00
2022-08-22T01:35:14.766Z,100.00
2022-08-22T01:38:26.105Z,100.00
2022-08-22T01:41:24.732Z,100.00
2022-08-22T01:44:45.141Z,100.00
2022-08-22T01:47:54.452Z,100.00
2022-08-22T01:50:47.292Z,100.00
2022-08-22T01:53:42.676Z,100.00
2022-08-22T01:56:41.781Z,100.00
2022-08-22T01:59:42.443Z,100.00
2022-08-22T02:02:51.279Z,100.00
2022-08-22T02:06:03.045Z,100.00
2022-08-22T02:09:08.655Z,100.00
2022-08-22T02:12:45.254Z,100.00
2022-08-22T02:15:41.210Z,100.00
2022-08-22T02:18:42.259Z,100.00
2022-08-22T02:21:55.296Z,100.00
2022-08-22T02:24:54.632Z,100.00
2022-08-22T02:27:54.154Z,100.00
2022-08-22T02:31:03.997Z,100.00
2022-08-22T02:33:58.340Z,100.00
2022-08-22T02:37:13.142Z,100.00
2022-08-22T02:40:46.556Z,100.00
2022-08-22T02:43:45.257Z,100.00
2022-08-22T02:46:54.708Z,100.00
2022-08-22T02:49:51.895Z,100.00
2022-08-22T02:53:02.834Z,100.00
2022-08-22T02:56:00.628Z,100.00
2022-08-22T02:58:53.775Z,100.00
2022-08-22T03:01:46.752Z,100.00
2022-08-22T03:04:33.850Z,100.00
2022-08-22T03:07:20.735Z,100.00
2022-08-22T03:10:26.191Z,100.00
2022-08-22T03:13:24.969Z,100.00
2022-08-22T03:16:34.064Z,100.00
2022-08-22T03:19:56.516Z,100.00
2022-08-22T03:22:48.544Z,100.00
2022-08-22T03:26:13.085Z,100.00
2022-08-22T03:29:08.129Z,100.00
2022-08-22T03:32:07.028Z,100.00
2022-08-22T03:35:09.236Z,100.00
2022-08-22T03:38:23.274Z,100.00
2022-08-22T03:41:22.676Z,100.00
2022-08-22T03:44:47.520Z,100.00
2022-08-22T03:48:03.710Z,100.00
2022-08-22T03:51:28.977Z,100.00
2022-08-22T03:54:40.404Z,100.00
2022-08-22T03:58:13.646Z,100.00
2022-08-22T04:01:41.975Z,100.00
2022-08-22T04:05:06.519Z,100.00
2022-08-22T04:08:01.946Z,100.00
2022-08-22T04:11:17.283Z,100.00
2022-08-22T04:14:13.293Z,100.00
2022-08-22T04:17:17.108Z,100.00
2022-08-22T04:20:19.567Z,100.00
2022-08-22T04:23:41.057Z,100.00
2022-08-22T04:26:49.103Z,100.00
2022-08-22T04:29:49.956Z,100.00
2022-08-22T04:32:43.983Z,100.00
2022-08-22T04:36:03.466Z,100.00
2022-08-22T04:39:09.091Z,100.00
2022-08-22T04:42:32.234Z,100.00
2022-08-22T04:45:29.747Z,100.00
2022-08-22T04:48:26.775Z,100.00
2022-08-22T04:51:25.907Z,100.00
2022-08-22T04:54:26.125Z,100.00
2022-08-22T04:57:45.653Z,100.00
2022-08-22T05:01:03.628Z,100.00
2022-08-22T05:04:22.907Z,100.00
2022-08-22T05:07:18.225Z,100.00
2022-08-22T05:10:22.941Z,100.00
2022-08-22T05:13:18.155Z,100.00
2022-08-22T05:16:12.421Z,100.00
2022-08-22T05:19:11.076Z,100.00
2022-08-22T05:22:01.802Z,100.00
2022-08-22T05:24:52.112Z,100.00
2022-08-22T05:27:44.276Z,100.00
2022-08-22T05:30:33.971Z,100.00
2022-08-22T05:33:30.408Z,100.00
2022-08-22T05:36:24.318Z,100.00
2022-08-22T05:39:21.944Z,100.00
2022-08-22T05:42:18.487Z,100.00
2022-08-22T05:45:08.554Z,100.00
2022-08-22T05:48:05.244Z,100.00
2022-08-22T05:50:58.627Z,100.00
2022-08-22T05:53:53.621Z,100.00
2022-08-22T05:56:49.888Z,100.00
2022-08-22T05:59:41.876Z,100.00
2022-08-22T06:03:00.195Z,100.00
2022-08-22T06:05:52.184Z,100.00
2022-08-22T06:08:44.317Z,100.00
2022-08-22T06:11:40.687Z,100.00
2022-08-22T06:14:52.213Z,88.61
2022-08-22T06:17:45.700Z,94.89
2022-08-22T06:20:45.903Z,100.00
2022-08-22T06:23:33.301Z,100.00
2022-08-22T06:26:21.541Z,98.86
2022-08-22T06:29:14.381Z,98.30
2022-08-22T06:32:08.544Z,100.00
2022-08-22T06:35:01.993Z,100.00
2022-08-22T06:37:50.996Z,100.00
2022-08-22T06:40:41.299Z,98.04
2022-08-22T06:43:36.801Z,86.60
2022-08-22T06:46:28.306Z,90.48
2022-08-22T06:49:16.776Z,84.94
2022-08-22T06:52:08.528Z,77.69
2022-08-22T06:55:03.054Z,85.26
2022-08-22T06:57:53.767Z,82.38
2022-08-22T07:00:43.317Z,77.67
2022-08-22T07:03:36.888Z,90.71
2022-08-22T07:06:35.898Z,82.82
2022-08-22T07:09:25.440Z,79.33
2022-08-22T07:12:26.809Z,72.26
2022-08-22T07:15:39.863Z,71.29
2022-08-22T07:18:30.023Z,68.92
2022-08-22T07:21:42.539Z,70.91
2022-08-22T07:24:32.931Z,63.53
2022-08-22T07:27:25.906Z,60.26
2022-08-22T07:30:27.322Z,60.32
2022-08-22T07:33:44.304Z,63.48
2022-08-22T07:36:54.992Z,63.51
2022-08-22T07:39:54.177Z,65.49
2022-08-22T07:43:00.978Z,65.38
2022-08-22T07:45:55.818Z,63.41
2022-08-22T07:49:08.707Z,65.58
2022-08-22T07:52:00.629Z,66.73
2022-08-22T07:55:06.752Z,68.55
2022-08-22T07:57:58.066Z,63.75
2022-08-22T08:00:48.995Z,64.33
2022-08-22T08:03:36.900Z,66.63
2022-08-22T08:06:25.514Z,67.48
2022-08-22T08:09:16.888Z,70.19
2022-08-22T08:12:06.042Z,70.48
2022-08-22T08:14:55.828Z,65.11
2022-08-22T08:17:44.704Z,65.38
2022-08-22T08:20:34.624Z,65.82
2022-08-22T08:23:23.729Z,68.00
2022-08-22T08:26:15.963Z,63.75
2022-08-22T08:29:04.825Z,63.39
2022-08-22T08:31:53.050Z,66.03
2022-08-22T08:34:43.447Z,67.40
2022-08-22T08:37:41.551Z,66.22
2022-08-22T08:40:31.324Z,65.62
2022-08-22T08:43:34.879Z,65.22
2022-08-22T08:46:39.876Z,58.17
2022-08-22T08:49:42.118Z,52.69
2022-08-22T08:52:54.230Z,56.23
2022-08-22T08:56:12.165Z,54.87
2022-08-22T08:59:17.347Z,54.48
2022-08-22T09:02:13.891Z,54.01
2022-08-22T09:05:41.649Z,50.26
2022-08-22T09:08:34.598Z,54.87
2022-08-22T09:11:59.895Z,47.24
2022-08-22T09:15:31.625Z,46.59
2022-08-22T09:19:00.539Z,47.09
2022-08-22T09:22:05.538Z,44.26
2022-08-22T09:25:39.244Z,47.20
2022-08-22T09:29:00.391Z,45.93
2022-08-22T09:32:03.518Z,44.10
2022-08-22T09:35:22.565Z,46.79
2022-08-22T09:38:22.208Z,37.61
2022-08-22T09:41:41.255Z,40.21
2022-08-22T09:44:39.767Z,44.82
2022-08-22T09:47:34.563Z,42.06
2022-08-22T09:50:35.688Z,44.19
2022-08-22T09:54:01.195Z,40.83
2022-08-22T09:57:10.879Z,42.24
2022-08-22T10:00:01.057Z,39.97
2022-08-22T10:03:17.112Z,39.91
2022-08-22T10:06:13.157Z,39.93
2022-08-22T10:09:18.893Z,39.04
2022-08-22T10:12:19.523Z,38.90
2022-08-22T10:15:11.807Z,40.09
2022-08-22T10:18:20.456Z,38.05
2022-08-22T10:21:25.308Z,41.94
2022-08-22T10:24:43.553Z,38.87
2022-08-22T10:27:59.048Z,39.48
2022-08-22T10:30:57.864Z,37.42
2022-08-22T10:34:07.907Z,41.61
2022-08-22T10:37:15.680Z,36.66
2022-08-22T10:40:08.555Z,36.24
2022-08-22T10:43:05.956Z,36.50
2022-08-22T10:46:03.636Z,34.71
2022-08-22T10:49:05.939Z,35.82
2022-08-22T10:52:15.268Z,37.01
2022-08-22T10:55:13.669Z,33.29
2022-08-22T10:58:11.027Z,38.93
2022-08-22T11:01:01.377Z,41.73
2022-08-22T11:04:28.370Z,48.65
2022-08-22T11:07:50.224Z,48.21
2022-08-22T11:10:52.103Z,51.53
2022-08-22T11:13:46.473Z,51.89
2022-08-22T11:16:41.768Z,43.73
2022-08-22T11:19:57.516Z,33.19
2022-08-22T11:23:18.653Z,32.16
2022-08-22T11:26:15.141Z,40.49
2022-08-22T11:29:43.575Z,31.85
2022-08-22T11:32:36.752Z,33.69
2022-08-22T11:35:31.876Z,39.20
2022-08-22T11:38:22.187Z,42.65
2022-08-22T11:41:24.030Z,36.52
2022-08-22T11:44:29.796Z,33.28
2022-08-22T11:47:20.523Z,31.29
2022-08-22T11:50:35.204Z,28.66
2022-08-22T11:53:34.177Z,31.41
2022-08-22T11:56:27.311Z,32.38
2022-08-22T11:59:29.777Z,32.14
2022-08-22T12:02:26.292Z,36.45
2022-08-22T12:05:20.008Z,28.78
2022-08-22T12:08:14.118Z,35.16
2022-08-22T12:11:07.033Z,38.07
2022-08-22T12:14:06.129Z,32.85
2022-08-22T12:17:08.774Z,32.61
2022-08-22T12:20:40.489Z,32.74
2022-08-22T12:23:49.745Z,33.85
2022-08-22T12:27:07.908Z,32.32
2022-08-22T12:30:14.208Z,33.39
2022-08-22T12:33:23.011Z,41.17
2022-08-22T12:36:45.266Z,41.91
2022-08-22T12:40:10.552Z,44.02
2022-08-22T12:43:12.722Z,43.80
2022-08-22T12:46:15.557Z,40.75
2022-08-22T12:49:38.571Z,38.64
2022-08-22T12:53:03.034Z,38.47
2022-08-22T12:56:33.203Z,30.85
2022-08-22T12:59:23.706Z,32.57
2022-08-22T13:02:28.064Z,38.41
2022-08-22T13:05:24.794Z,42.92
2022-08-22T13:08:22.317Z,41.87
2022-08-22T13:11:23.016Z,42.77
2022-08-22T13:14:18.221Z,32.48
2022-08-22T13:17:25.068Z,31.58
2022-08-22T13:20:24.285Z,31.30
2022-08-22T13:23:20.036Z,34.13
2022-08-22T13:26:16.373Z,33.75
2022-08-22T13:29:39.349Z,30.96
2022-08-22T13:32:33.147Z,30.37
2022-08-22T13:36:10.893Z,38.39
2022-08-22T13:39:06.595Z,39.00
2022-08-22T13:42:00.253Z,40.69
2022-08-22T13:44:52.548Z,41.84
2022-08-22T13:47:50.881Z,42.22
2022-08-22T13:50:53.917Z,43.31
2022-08-22T13:54:01.892Z,43.26
2022-08-22T13:57:20.097Z,41.08
2022-08-22T14:00:29.110Z,41.87
2022-08-22T14:03:22.763Z,36.03
2022-08-22T14:06:36.857Z,38.91
2022-08-22T14:10:02.772Z,30.19
2022-08-22T14:12:55.796Z,35.44
2022-08-22T14:15:45.380Z,32.37
2022-08-22T14:18:45.685Z,34.66
2022-08-22T14:21:40.086Z,30.62
2022-08-22T14:24:45.927Z,30.22
2022-08-22T14:28:00.973Z,30.77
2022-08-22T14:31:07.164Z,32.17
2022-08-22T14:33:59.847Z,35.79
2022-08-22T14:37:13.003Z,33.50
2022-08-22T14:40:03.046Z,34.50
2022-08-22T14:43:01.605Z,31.79
2022-08-22T14:46:23.442Z,32.79
2022-08-22T14:49:20.358Z,32.39
2022-08-22T14:52:25.652Z,32.66
2022-08-22T14:55:26.452Z,35.89
2022-08-22T14:58:26.346Z,31.62
2022-08-22T15:01:19.639Z,30.26
2022-08-22T15:04:13.856Z,34.19
2022-08-22T15:07:05.539Z,34.34
2022-08-22T15:09:56.498Z,32.84
2022-08-22T15:12:51.375Z,36.47
2022-08-22T15:15:52.562Z,36.06
2022-08-22T15:18:51.422Z,33.84
2022-08-22T15:21:41.605Z,36.12
2022-08-22T15:24:29.458Z,34.38
2022-08-22T15:27:21.324Z,34.69
2022-08-22T15:30:20.342Z,36.23
2022-08-22T15:33:39.915Z,34.65
2022-08-22T15:36:30.336Z,32.60
2022-08-22T15:39:57.350Z,33.67
2022-08-22T15:42:49.021Z,35.98
2022-08-22T15:45:39.158Z,35.27
2022-08-22T15:48:39.214Z,37.80
2022-08-22T15:51:52.751Z,35.67
2022-08-22T15:54:46.965Z,37.20
2022-08-22T15:57:42.243Z,37.46
2022-08-22T16:00:43.422Z,37.91
2022-08-22T16:03:34.198Z,39.03
2022-08-22T16:07:09.484Z,38.27
2022-08-22T16:09:59.569Z,36.92
2022-08-22T16:13:07.573Z,37.28
2022-08-22T16:16:01.750Z,38.29
2022-08-22T16:18:48.839Z,36.95
2022-08-22T16:21:39.208Z,37.54
2022-08-22T16:24:26.218Z,37.54
2022-08-22T16:27:22.823Z,39.11
2022-08-22T16:30:14.237Z,39.03
2022-08-22T16:33:01.901Z,38.28
2022-08-22T16:36:24.297Z,39.03
2022-08-22T16:39:23.112Z,38.85
2022-08-22T16:42:13.410Z,38.38
2022-08-22T16:45:05.433Z,40.63
2022-08-22T16:47:59.339Z,40.30
2022-08-22T16:51:01.872Z,39.67
2022-08-22T16:54:11.316Z,38.78
2022-08-22T16:57:07.666Z,39.68
2022-08-22T17:00:13.381Z,38.15
2022-08-22T17:03:25.507Z,39.08
2022-08-22T17:06:37.313Z,39.84
2022-08-22T17:09:43.388Z,38.70
2022-08-22T17:12:45.499Z,39.41
2022-08-22T17:16:17.620Z,40.37
2022-08-22T17:19:20.008Z,40.70
2022-08-22T17:22:41.505Z,41.78
2022-08-22T17:25:53.241Z,41.54
2022-08-22T17:28:42.506Z,44.28
2022-08-22T17:31:46.347Z,43.94
2022-08-22T17:34:43.855Z,44.48
2022-08-22T17:37:55.101Z,44.79
2022-08-22T17:41:11.770Z,46.24
2022-08-22T17:44:04.965Z,47.93
2022-08-22T17:47:27.375Z,48.26
2022-08-22T17:50:30.796Z,49.46
2022-08-22T17:53:33.151Z,51.09
2022-08-22T17:56:45.626Z,55.37
2022-08-22T17:59:37.012Z,63.07
2022-08-22T18:02:32.864Z,64.87
2022-08-22T18:05:22.653Z,63.18
2022-08-22T18:11:54.343Z,73.71
2022-08-22T18:14:59.701Z,74.77
2022-08-22T18:18:05.199Z,73.69
2022-08-22T18:21:05.690Z,62.25
2022-08-22T18:23:59.146Z,60.99
2022-08-22T18:26:57.832Z,59.01
2022-08-22T18:29:52.499Z,59.24
2022-08-22T18:32:55.540Z,59.87
2022-08-22T18:35:53.865Z,62.81
2022-08-22T18:38:59.975Z,65.77
2022-08-22T18:42:09.780Z,66.09
2022-08-22T18:44:57.221Z,67.56
2022-08-22T18:47:55.336Z,68.74
2022-08-22T18:50:42.853Z,69.49
2022-08-22T18:53:46.292Z,72.59
2022-08-22T18:56:54.705Z,77.25
2022-08-22T18:59:46.994Z,69.95
2022-08-22T19:03:14.706Z,63.52
2022-08-22T19:06:18.921Z,63.95
2022-08-22T19:09:27.526Z,65.12
2022-08-22T19:12:39.296Z,66.63
2022-08-22T19:15:50.736Z,66.90
2022-08-22T19:18:51.265Z,66.77
2022-08-22T19:21:57.054Z,65.89
2022-08-22T19:25:09.170Z,66.23
2022-08-22T19:28:11.538Z,65.73
2022-08-22T19:31:22.412Z,66.42
2022-08-22T19:34:35.653Z,66.90
2022-08-22T19:37:30.546Z,66.94
2022-08-22T19:40:45.406Z,67.48
2022-08-22T19:43:40.514Z,66.23
2022-08-22T19:46:38.193Z,65.50
2022-08-22T19:49:43.792Z,65.19
2022-08-22T19:52:46.764Z,65.44
2022-08-22T19:55:39.494Z,65.49
2022-08-22T19:58:32.776Z,65.74
2022-08-22T20:01:36.178Z,66.31
2022-08-22T20:05:08.677Z,67.06
2022-08-22T20:08:24.931Z,66.96
2022-08-22T20:11:45.425Z,66.17
2022-08-22T20:14:36.144Z,65.11
2022-08-22T20:17:25.913Z,65.58
2022-08-22T20:20:23.974Z,65.25
2022-08-22T20:23:29.680Z,65.43
2022-08-22T20:26:16.843Z,65.82
2022-08-22T20:29:07.237Z,66.62
2022-08-22T20:31:58.751Z,66.75
2022-08-22T20:34:47.657Z,65.82
2022-08-22T20:38:05.372Z,66.72
2022-08-22T20:41:05.580Z,67.78
2022-08-22T20:44:06.263Z,68.53
2022-08-22T20:47:02.135Z,68.43
2022-08-22T20:50:01.857Z,69.18
2022-08-22T20:52:51.998Z,69.06
2022-08-22T20:55:54.009Z,69.74
2022-08-22T20:58:47.119Z,74.96
2022-08-22T21:01:34.647Z,73.85
2022-08-22T21:04:25.530Z,73.51
2022-08-22T21:07:21.010Z,73.93
2022-08-22T21:10:48.939Z,72.09
2022-08-22T21:13:37.820Z,70.55
2022-08-22T21:16:33.479Z,73.44
2022-08-22T21:19:26.367Z,73.55
2022-08-22T21:22:29.545Z,71.88
2022-08-22T21:25:17.055Z,71.96
2022-08-22T21:28:04.132Z,73.67
2022-08-22T21:30:51.241Z,73.13
2022-08-22T21:33:43.712Z,72.90
2022-08-22T21:36:31.890Z,72.29
2022-08-22T21:39:36.618Z,73.11
2022-08-22T21:42:35.584Z,73.48
2022-08-22T21:45:37.994Z,72.86
2022-08-22T21:48:44.300Z,74.53
2022-08-22T21:51:44.162Z,74.39
2022-08-22T21:54:40.196Z,76.15
2022-08-22T21:57:35.609Z,73.46
2022-08-22T22:00:59.953Z,73.80
2022-08-22T22:03:47.591Z,71.51
2022-08-22T22:06:35.038Z,77.86
2022-08-22T22:09:22.645Z,80.99
2022-08-22T22:12:12.749Z,80.95
2022-08-22T22:14:59.998Z,84.22
2022-08-22T22:17:47.578Z,84.64
2022-08-22T22:20:34.768Z,80.52
2022-08-22T22:23:22.569Z,79.97
2022-08-22T22:26:09.625Z,78.03
2022-08-22T22:28:58.759Z,82.60
2022-08-22T22:31:45.771Z,91.16
2022-08-22T22:34:32.765Z,100.00
2022-08-22T22:37:19.803Z,100.00
2022-08-22T22:40:08.721Z,100.00
2022-08-22T22:42:55.895Z,100.00
2022-08-22T22:45:42.786Z,100.00
2022-08-22T22:48:29.901Z,96.67
2022-08-22T22:51:16.831Z,94.80
2022-08-22T22:54:03.878Z,99.99
2022-08-22T22:56:51.819Z,94.47
2022-08-22T22:59:38.951Z,100.00
2022-08-22T23:02:27.320Z,100.00
2022-08-22T23:05:14.547Z,100.00
2022-08-22T23:08:03.743Z,100.00
2022-08-22T23:10:50.758Z,100.00
2022-08-22T23:13:39.722Z,100.00
2022-08-22T23:16:32.895Z,100.00
2022-08-22T23:19:24.737Z,100.00
2022-08-22T23:22:11.715Z,100.00
2022-08-22T23:24:58.660Z,100.00
2022-08-22T23:27:52.104Z,100.00
2022-08-22T23:30:39.558Z,100.00
2022-08-22T23:33:26.520Z,100.00
2022-08-22T23:36:18.992Z,100.00
2022-08-22T23:39:07.069Z,100.00
2022-08-22T23:41:54.331Z,100.00
2022-08-22T23:44:42.535Z,100.00
2022-08-22T23:47:29.567Z,100.00
2022-08-22T23:50:16.533Z,100.00
2022-08-22T23:53:03.553Z,100.00
2022-08-22T23:55:50.590Z,100.00
2022-08-22T23:58:37.726Z,100.00
